Time;durP1;ratioP1;P1;durP2;ratioP2;P2;SDS_P1;SDS_P2;PMS_P1;PMS_P2;Temp;Humidity;BMP_temperature;BMP_pressure;BME280_temperature;BME280_humidity;BME280_pressure;Samples;Min_cycle;Max_cycle;Signal;HPM_P1;HPM_P2
2023/08/02 00:00:56;;;;;;;15.10;5.80;;;;;;;17.22;100.00;100055.94;5057558;28;20040;-74
2023/08/02 00:03:22;;;;;;;17.45;6.07;;;;;;;17.12;100.00;100052.50;5044624;28;20225;-74
2023/08/02 00:05:53;;;;;;;16.27;5.82;;;;;;;16.95;100.00;100047.00;5047440;28;20029;-74
2023/08/02 00:08:19;;;;;;;17.95;6.57;;;;;;;16.87;100.00;100048.78;5039675;28;20048;-74
2023/08/02 00:10:44;;;;;;;18.60;6.63;;;;;;;16.80;100.00;100046.72;5038657;28;20043;-74
2023/08/02 00:13:13;;;;;;;14.55;6.30;;;;;;;16.83;100.00;100046.44;5047548;28;20691;-74
2023/08/02 00:15:42;;;;;;;15.18;5.95;;;;;;;16.77;100.00;100039.00;5040523;28;20546;-73
2023/08/02 00:18:08;;;;;;;18.08;6.60;;;;;;;16.76;100.00;100036.44;5046750;28;20099;-74
2023/08/02 00:20:36;;;;;;;22.55;6.25;;;;;;;16.74;100.00;100015.06;5046100;28;20025;-74
2023/08/02 00:23:01;;;;;;;17.60;6.72;;;;;;;16.66;100.00;100014.94;5040013;28;20119;-74
2023/08/02 00:25:27;;;;;;;16.73;6.75;;;;;;;16.59;100.00;100005.81;5047127;28;20036;-74
2023/08/02 00:27:52;;;;;;;16.38;6.63;;;;;;;16.57;100.00;99999.78;5042666;28;20029;-74
2023/08/02 00:30:18;;;;;;;16.92;6.80;;;;;;;16.56;100.00;100001.59;5047504;28;20033;-73
2023/08/02 00:32:44;;;;;;;20.10;6.93;;;;;;;16.51;100.00;100005.75;5044524;28;20487;-74
2023/08/02 00:35:12;;;;;;;16.40;6.50;;;;;;;16.44;100.00;100010.91;5041038;28;20093;-74
2023/08/02 00:37:38;;;;;;;16.63;6.43;;;;;;;16.48;100.00;100016.84;5042425;28;20037;-73
2023/08/02 00:40:05;;;;;;;23.63;6.13;;;;;;;16.45;100.00;100014.47;5061988;28;20044;-73
2023/08/02 00:42:30;;;;;;;21.75;7.53;;;;;;;16.43;100.00;100008.41;5040261;28;20092;-74
2023/08/02 00:44:56;;;;;;;20.95;6.80;;;;;;;16.39;100.00;100013.22;5037537;28;20742;-74
2023/08/02 00:47:24;;;;;;;17.15;6.72;;;;;;;16.34;100.00;100012.00;5043525;28;20037;-73
2023/08/02 00:49:49;;;;;;;14.00;5.95;;;;;;;16.27;100.00;100015.31;5046634;28;20030;-74
2023/08/02 00:52:15;;;;;;;19.23;6.70;;;;;;;16.35;100.00;100011.84;5042848;28;21274;-74
2023/08/02 00:54:43;;;;;;;15.52;6.75;;;;;;;16.33;100.00;99992.34;5038110;28;20852;-74
2023/08/02 00:57:12;;;;;;;12.98;6.82;;;;;;;16.34;100.00;99993.19;5042670;28;20157;-73
2023/08/02 00:59:43;;;;;;;16.30;6.55;;;;;;;16.28;100.00;99978.50;5050138;28;20056;-73
2023/08/02 01:02:11;;;;;;;21.77;6.78;;;;;;;16.15;100.00;100000.41;5051459;28;20059;-74
2023/08/02 01:04:38;;;;;;;19.30;7.03;;;;;;;16.17;100.00;100000.28;5048338;28;20025;-74
2023/08/02 01:07:21;;;;;;;12.95;6.88;;;;;;;16.02;100.00;100000.78;5049778;28;20060;-74
2023/08/02 01:09:56;;;;;;;13.80;6.57;;;;;;;16.11;100.00;100001.69;5050164;28;20061;-74
2023/08/02 01:12:24;;;;;;;24.50;7.18;;;;;;;16.10;100.00;99991.94;5039874;28;20049;-74
2023/08/02 01:14:53;;;;;;;14.55;6.93;;;;;;;16.01;100.00;100000.94;5042467;28;20051;-74
2023/08/02 01:17:19;;;;;;;25.77;7.25;;;;;;;16.05;100.00;100005.00;5045831;28;20049;-74
2023/08/02 01:19:45;;;;;;;21.63;7.57;;;;;;;15.89;100.00;100007.53;5058871;28;20025;-73
2023/08/02 01:22:15;;;;;;;12.25;7.20;;;;;;;15.96;100.00;100006.75;5030634;28;20036;-74
2023/08/02 01:24:46;;;;;;;17.23;7.05;;;;;;;16.14;100.00;99993.34;5049982;28;20029;-73
2023/08/02 01:27:20;;;;;;;15.43;7.32;;;;;;;16.15;100.00;99992.34;5049215;28;20034;-73
2023/08/02 01:29:49;;;;;;;16.40;6.90;;;;;;;16.09;100.00;99986.72;5044222;28;20033;-73
2023/08/02 01:32:16;;;;;;;14.00;7.07;;;;;;;15.92;100.00;99996.50;5048515;28;20044;-73
2023/08/02 01:34:43;;;;;;;12.88;6.57;;;;;;;15.94;100.00;100007.94;5043787;28;20036;-74
2023/08/02 01:37:09;;;;;;;15.82;6.90;;;;;;;16.03;100.00;100007.03;5078696;27;20048;-73
2023/08/02 01:39:37;;;;;;;17.88;6.32;;;;;;;15.90;100.00;100007.38;5035907;28;20040;-73
2023/08/02 01:42:03;;;;;;;15.40;6.43;;;;;;;15.95;100.00;100015.84;5048686;28;20041;-74
2023/08/02 01:44:29;;;;;;;14.48;6.32;;;;;;;15.97;100.00;100018.38;5049817;28;20037;-74
2023/08/02 01:46:55;;;;;;;14.85;6.50;;;;;;;15.94;100.00;99994.47;5082305;27;20033;-73
2023/08/02 01:49:21;;;;;;;13.85;6.28;;;;;;;15.90;100.00;99987.72;5051834;28;20763;-74
2023/08/02 01:51:47;;;;;;;18.80;5.97;;;;;;;15.93;100.00;99982.88;5051571;28;20045;-74
2023/08/02 01:54:13;;;;;;;11.50;5.50;;;;;;;15.93;100.00;99982.88;5049154;28;20053;-72
2023/08/02 01:56:43;;;;;;;12.20;6.35;;;;;;;15.70;100.00;99985.16;5042836;28;20056;-73
2023/08/02 01:59:11;;;;;;;12.27;5.88;;;;;;;15.88;100.00;99982.50;5066020;28;20206;-73
2023/08/02 02:01:43;;;;;;;8.40;4.85;;;;;;;15.66;100.00;99970.34;5056792;28;20838;-73
2023/08/02 02:04:09;;;;;;;12.75;5.70;;;;;;;15.70;100.00;99982.47;5056442;28;20041;-73
2023/08/02 02:06:34;;;;;;;13.48;5.60;;;;;;;15.69;100.00;99974.56;5064234;28;20187;-73
2023/08/02 02:09:00;;;;;;;12.32;5.65;;;;;;;15.75;100.00;99966.72;5052950;28;20033;-73
2023/08/02 02:11:26;;;;;;;12.00;5.30;;;;;;;15.74;100.00;99964.19;5056012;28;20037;-72
2023/08/02 02:13:51;;;;;;;15.27;6.00;;;;;;;15.79;100.00;99953.84;5089139;27;20048;-73
2023/08/02 02:16:17;;;;;;;19.10;5.95;;;;;;;15.86;100.00;99962.97;5054159;28;20340;-73
2023/08/02 02:18:45;;;;;;;12.80;5.70;;;;;;;15.83;100.00;99946.31;5066554;28;20037;-73
2023/08/02 02:21:13;;;;;;;15.00;5.65;;;;;;;15.90;100.00;99932.09;5083401;28;20947;-73
2023/08/02 02:23:48;;;;;;;12.20;5.63;;;;;;;15.77;100.00;99934.34;5050425;28;20033;-73
2023/08/02 02:26:15;;;;;;;12.25;5.63;;;;;;;15.72;100.00;99936.63;5047716;28;21225;-73
2023/08/02 02:28:43;;;;;;;11.77;4.90;;;;;;;15.87;100.00;99927.03;5052347;28;20043;-73
2023/08/02 02:31:09;;;;;;;11.75;5.15;;;;;;;15.94;100.00;99924.56;5052062;28;20044;-73
2023/08/02 02:33:35;;;;;;;14.52;5.32;;;;;;;15.89;100.00;99914.28;5049057;28;20049;-73
2023/08/02 02:36:03;;;;;;;13.25;5.30;;;;;;;15.83;100.00;99904.16;5048357;28;20097;-74
2023/08/02 02:38:32;;;;;;;12.10;6.07;;;;;;;15.89;100.00;99887.38;5046867;28;20041;-73
2023/08/02 02:40:57;;;;;;;12.20;5.13;;;;;;;16.03;100.00;99870.69;5045915;28;20147;-75
2023/08/02 02:43:24;;;;;;;14.82;5.88;;;;;;;15.94;100.00;99866.25;5050939;28;20072;-75
2023/08/02 02:45:49;;;;;;;10.77;5.10;;;;;;;16.02;100.00;99858.25;5037388;28;20041;-75
2023/08/02 02:48:15;;;;;;;9.65;5.57;;;;;;;16.17;100.00;99855.00;5049628;28;20583;-75
2023/08/02 02:50:44;;;;;;;14.63;5.25;;;;;;;16.07;100.00;99846.19;5048492;28;20473;-75
2023/08/02 02:53:16;;;;;;;12.98;6.28;;;;;;;16.16;100.00;99856.00;5042021;28;20076;-75
2023/08/02 02:55:43;;;;;;;;;;;;;;;16.10;100.00;99854.78;5043371;28;20053;-75
2023/08/02 02:58:09;;;;;;;18.63;5.05;;;;;;;16.18;100.00;99851.31;5047993;28;19923;-75
2023/08/02 03:00:34;;;;;;;15.02;5.65;;;;;;;16.17;100.00;99846.94;5047389;28;20343;-75
2023/08/02 03:03:00;;;;;;;12.45;5.35;;;;;;;16.17;100.00;99844.25;5042683;28;20385;-75
2023/08/02 03:05:26;;;;;;;9.73;4.72;;;;;;;16.04;100.00;99836.59;5047327;28;20480;-75
2023/08/02 03:07:52;;;;;;;14.23;5.50;;;;;;;16.01;100.00;99839.56;5048921;28;20116;-73
2023/08/02 03:10:17;;;;;;;11.93;4.80;;;;;;;16.03;100.00;99843.81;5058984;28;20037;-73
2023/08/02 03:12:43;;;;;;;11.57;5.20;;;;;;;16.07;100.00;99838.13;5048478;28;20183;-73
2023/08/02 03:15:09;;;;;;;11.35;5.28;;;;;;;16.03;100.00;99837.59;5049250;28;20037;-73
2023/08/02 03:17:39;;;;;;;11.93;5.60;;;;;;;15.92;100.00;99824.41;5047074;28;20037;-73
2023/08/02 03:20:08;;;;;;;12.90;5.53;;;;;;;16.00;100.00;99827.13;5045710;28;20094;-73
2023/08/02 03:22:34;;;;;;;12.95;5.47;;;;;;;15.98;100.00;99826.47;5051484;28;20033;-73
2023/08/02 03:25:00;;;;;;;14.18;5.50;;;;;;;16.07;100.00;99812.09;5055858;28;20103;-73
2023/08/02 03:27:25;;;;;;;12.82;5.45;;;;;;;15.99;100.00;99809.31;5044836;28;20037;-73
2023/08/02 03:29:51;;;;;;;15.60;6.47;;;;;;;15.99;100.00;99807.47;5042941;28;20471;-73
2023/08/02 03:32:17;;;;;;;16.00;6.70;;;;;;;16.02;100.00;99809.84;5029461;28;20041;-73
2023/08/02 03:34:43;;;;;;;14.48;6.60;;;;;;;15.92;100.00;99798.34;5072833;28;20041;-73
2023/08/02 03:37:08;;;;;;;15.75;6.63;;;;;;;16.03;100.00;99781.97;5048735;28;20028;-73
2023/08/02 03:39:34;;;;;;;13.20;5.90;;;;;;;16.08;100.00;99770.72;5046669;28;20033;-73
2023/08/02 03:42:00;;;;;;;16.30;7.22;;;;;;;16.00;100.00;99776.03;5039976;28;20136;-73
2023/08/02 03:44:26;;;;;;;13.63;6.80;;;;;;;16.06;100.00;99764.66;5040516;28;20037;-73
2023/08/02 03:46:51;;;;;;;18.92;7.45;;;;;;;16.08;100.00;99762.66;5046078;28;20378;-73
2023/08/02 03:49:17;;;;;;;11.70;6.30;;;;;;;16.20;100.00;99766.75;5046227;28;20222;-73
2023/08/02 03:51:43;;;;;;;21.10;7.47;;;;;;;16.16;100.00;99773.44;5038306;28;20124;-73
2023/08/02 03:54:09;;;;;;;24.98;7.88;;;;;;;16.19;100.00;99769.59;5042513;28;20620;-73
2023/08/02 03:56:36;;;;;;;11.75;6.10;;;;;;;16.22;100.00;99772.84;5044562;28;20041;-74
2023/08/02 03:59:02;;;;;;;19.00;6.05;;;;;;;16.33;100.00;99771.72;5044179;28;20076;-73
2023/08/02 04:01:27;;;;;;;11.75;6.45;;;;;;;16.32;100.00;99764.66;5045649;28;20351;-73
2023/08/02 04:03:53;;;;;;;11.35;6.07;;;;;;;16.44;100.00;99765.19;5045200;28;20383;-73
2023/08/02 04:06:18;;;;;;;15.13;7.00;;;;;;;16.41;100.00;99760.97;5046022;28;20432;-73
2023/08/02 04:08:44;;;;;;;16.92;7.40;;;;;;;16.46;100.00;99755.09;5044723;28;20036;-73
2023/08/02 04:11:17;;;;;;;14.32;6.80;;;;;;;16.37;100.00;99739.94;5045911;28;20049;-73
2023/08/02 04:13:44;;;;;;;15.70;6.97;;;;;;;16.31;100.00;99733.34;5038257;28;20032;-73
2023/08/02 04:16:13;;;;;;;15.98;7.03;;;;;;;16.34;100.00;99726.81;5040820;28;20060;-74
2023/08/02 04:18:38;;;;;;;14.65;6.85;;;;;;;16.38;100.00;99720.94;5043025;28;20163;-73
2023/08/02 04:21:04;;;;;;;17.10;7.25;;;;;;;16.22;100.00;99721.72;5032670;28;20605;-73
2023/08/02 04:23:30;;;;;;;17.50;7.10;;;;;;;16.36;100.00;99716.72;5059536;28;20044;-73
2023/08/02 04:25:55;;;;;;;21.52;6.75;;;;;;;16.23;100.00;99709.94;5056142;28;20041;-73
2023/08/02 04:28:21;;;;;;;16.60;6.30;;;;;;;16.41;100.00;99706.31;5043547;28;20036;-73
2023/08/02 04:30:51;;;;;;;14.52;6.25;;;;;;;16.50;100.00;99697.25;5043806;28;20044;-73
2023/08/02 04:33:17;;;;;;;14.38;5.70;;;;;;;16.60;100.00;99697.13;5041753;28;20048;-73
2023/08/02 04:35:43;;;;;;;11.23;5.68;;;;;;;16.59;100.00;99680.13;5042647;28;20052;-73
2023/08/02 04:38:08;;;;;;;11.10;5.13;;;;;;;16.65;100.00;99678.63;5045944;28;20845;-74
2023/08/02 04:40:38;;;;;;;10.68;5.72;;;;;;;16.67;100.00;99671.25;5045416;28;20040;-73
2023/08/02 04:43:04;;;;;;;15.93;5.80;;;;;;;16.81;100.00;99668.75;5077028;28;20033;-73
2023/08/02 04:45:30;;;;;;;12.68;5.55;;;;;;;16.96;100.00;99662.72;5045878;28;20033;-73
2023/08/02 04:47:55;;;;;;;14.15;5.47;;;;;;;16.93;100.00;99647.75;5054477;28;20040;-73
2023/08/02 04:50:21;;;;;;;9.73;5.13;;;;;;;17.12;100.00;99641.19;5044484;28;20021;-73
2023/08/02 04:52:46;;;;;;;9.68;5.15;;;;;;;16.93;100.00;99630.75;5054494;28;20144;-73
2023/08/02 04:55:15;;;;;;;13.55;5.32;;;;;;;16.90;100.00;99629.22;5047481;28;20891;-73
2023/08/02 04:57:44;;;;;;;10.20;4.38;;;;;;;16.81;100.00;99631.06;5059682;28;20069;-73
2023/08/02 05:00:11;;;;;;;9.55;4.70;;;;;;;16.80;100.00;99621.31;5045634;28;20744;-73
2023/08/02 05:02:39;;;;;;;11.90;4.82;;;;;;;16.87;100.00;99613.41;5044496;28;20572;-73
2023/08/02 05:05:06;;;;;;;11.82;4.70;;;;;;;16.64;100.00;99612.34;5043675;28;20052;-74
2023/08/02 05:07:33;;;;;;;9.98;4.20;;;;;;;16.72;100.00;99615.09;5033454;28;20756;-73
2023/08/02 05:10:03;;;;;;;12.70;4.80;;;;;;;16.70;100.00;99604.44;5037590;28;20213;-74
2023/08/02 05:12:33;;;;;;;10.30;4.20;;;;;;;16.93;100.00;99599.28;5046467;28;20155;-74
2023/08/02 05:14:58;;;;;;;9.68;4.30;;;;;;;17.00;100.00;99600.28;5045504;28;20048;-74
2023/08/02 05:17:27;;;;;;;12.40;4.80;;;;;;;16.93;100.00;99593.06;5043794;28;20148;-73
2023/08/02 05:19:53;;;;;;;9.90;5.13;;;;;;;17.00;100.00;99578.72;5040368;28;20029;-73
2023/08/02 05:22:18;;;;;;;14.23;4.70;;;;;;;16.83;100.00;99574.38;5028309;28;20029;-75
2023/08/02 05:24:44;;;;;;;11.35;4.53;;;;;;;16.92;100.00;99575.19;5044395;28;20033;-76
2023/08/02 05:27:13;;;;;;;9.10;4.47;;;;;;;16.97;100.00;99559.41;5078593;28;20037;-76
2023/08/02 05:29:38;;;;;;;10.45;5.35;;;;;;;17.20;100.00;99560.34;5038274;28;20148;-75
2023/08/02 05:32:08;;;;;;;12.80;4.07;;;;;;;17.22;100.00;99562.88;5045988;28;20141;-75
2023/08/02 05:34:33;;;;;;;16.00;4.38;;;;;;;17.27;100.00;99549.72;5045345;28;20131;-75
2023/08/02 05:37:00;;;;;;;9.40;3.92;;;;;;;17.29;100.00;99537.78;5042155;28;20064;-77
2023/08/02 05:39:28;;;;;;;8.15;3.70;;;;;;;17.19;100.00;99528.19;5043294;28;20098;-74
2023/08/02 05:41:54;;;;;;;13.23;4.53;;;;;;;16.88;100.00;99523.53;5037540;28;20112;-75
2023/08/02 05:44:19;;;;;;;7.78;4.15;;;;;;;17.06;100.00;99520.63;5046927;28;20034;-75
2023/08/02 05:46:45;;;;;;;11.25;4.22;;;;;;;16.89;100.00;99525.22;5029014;28;20029;-74
2023/08/02 05:49:13;;;;;;;12.52;4.10;;;;;;;17.04;100.00;99520.81;5048469;28;20934;-74
2023/08/02 05:51:49;;;;;;;10.80;4.00;;;;;;;17.11;100.00;99517.44;5045703;28;20919;-74
2023/08/02 05:54:17;;;;;;;;;;;;;;;17.01;100.00;99518.44;5045338;28;20059;-74
2023/08/02 05:56:46;;;;;;;9.27;3.92;;;;;;;16.94;100.00;99522.03;5046503;28;19924;-71
2023/08/02 05:59:17;;;;;;;9.85;4.15;;;;;;;16.81;100.00;99515.28;5047354;28;20207;-71
2023/08/02 06:01:45;;;;;;;7.78;4.10;;;;;;;16.68;100.00;99509.56;5041816;28;20038;-71
2023/08/02 06:04:13;;;;;;;9.98;4.55;;;;;;;16.59;100.00;99510.56;5042345;28;20060;-71
2023/08/02 06:06:44;;;;;;;9.35;4.30;;;;;;;16.74;100.00;99511.59;5081387;28;20037;-71
2023/08/02 06:09:19;;;;;;;8.40;4.60;;;;;;;16.89;100.00;99508.22;5043384;28;20037;-71
2023/08/02 06:11:45;;;;;;;13.85;4.47;;;;;;;16.51;100.00;99487.19;5049187;28;20084;-70
2023/08/02 06:14:15;;;;;;;13.75;4.88;;;;;;;16.63;100.00;99492.25;5049318;28;20367;-70
2023/08/02 06:16:46;;;;;;;10.00;4.57;;;;;;;16.80;100.00;99502.00;5049189;28;20436;-71
2023/08/02 06:19:17;;;;;;;11.75;4.90;;;;;;;16.67;100.00;99489.03;5047691;28;20037;-71
2023/08/02 06:21:46;;;;;;;9.50;4.57;;;;;;;16.36;100.00;99485.34;5046889;28;20124;-71
2023/08/02 06:24:17;;;;;;;8.00;4.88;;;;;;;16.27;100.00;99497.97;5042706;28;20036;-70
2023/08/02 06:26:47;;;;;;;11.68;5.63;;;;;;;16.16;100.00;99496.41;5045277;28;20045;-70
2023/08/02 06:29:16;;;;;;;14.35;6.57;;;;;;;15.98;100.00;99485.81;5046627;28;20025;-71
2023/08/02 06:31:44;;;;;;;12.90;6.22;;;;;;;15.90;100.00;99490.31;5080211;27;20045;-71
2023/08/02 06:34:13;;;;;;;18.85;6.18;;;;;;;15.95;100.00;99485.28;5049345;28;20316;-71
2023/08/02 06:36:45;;;;;;;12.18;5.78;;;;;;;16.01;100.00;99480.13;5048548;27;20041;-70
2023/08/02 06:39:17;;;;;;;16.13;6.47;;;;;;;15.90;100.00;99482.25;5041100;28;20570;-71
2023/08/02 06:41:45;;;;;;;13.20;6.45;;;;;;;15.95;100.00;99483.44;5048603;28;20171;-70
2023/08/02 06:44:15;;;;;;;15.05;6.63;;;;;;;16.06;100.00;99476.91;5059083;28;20029;-70
2023/08/02 06:46:44;;;;;;;15.43;6.15;;;;;;;16.04;100.00;99471.69;5048626;28;20025;-71
2023/08/02 06:49:16;;;;;;;14.43;6.80;;;;;;;15.99;100.00;99460.59;5042026;28;20033;-70
2023/08/02 06:51:44;;;;;;;10.95;6.22;;;;;;;16.05;100.00;99469.84;5043634;28;20041;-71
2023/08/02 06:54:15;;;;;;;12.02;6.07;;;;;;;16.13;100.00;99460.97;5041639;28;20553;-71
2023/08/02 06:56:44;;;;;;;10.35;6.35;;;;;;;16.18;100.00;99448.69;5049018;28;20137;-70
2023/08/02 06:59:16;;;;;;;12.95;6.80;;;;;;;15.95;100.00;99451.19;5042084;28;20032;-71
2023/08/02 07:01:46;;;;;;;12.50;6.10;;;;;;;16.19;100.00;99444.97;5051119;28;20057;-71
2023/08/02 07:04:17;;;;;;;13.43;7.20;;;;;;;16.11;100.00;99442.28;5044954;28;20061;-71
2023/08/02 07:06:46;;;;;;;14.57;7.85;;;;;;;16.13;100.00;99432.22;5043475;28;20775;-71
2023/08/02 07:09:17;;;;;;;11.57;7.00;;;;;;;16.13;100.00;99437.59;5056707;28;20801;-71
2023/08/02 07:11:45;;;;;;;14.33;6.87;;;;;;;16.14;100.00;99428.50;5048212;28;20039;-71
2023/08/02 07:14:13;;;;;;;14.52;7.78;;;;;;;16.35;100.00;99422.63;5050038;28;20095;-71
2023/08/02 07:16:44;;;;;;;19.02;6.22;;;;;;;16.42;100.00;99418.25;5051159;28;20828;-71
2023/08/02 07:19:17;;;;;;;11.32;6.80;;;;;;;16.39;100.00;99397.06;5050138;28;20063;-72
2023/08/02 07:21:49;;;;;;;9.43;6.18;;;;;;;16.24;100.00;99398.75;5081609;27;20091;-71
2023/08/02 07:24:15;;;;;;;12.00;7.00;;;;;;;16.09;100.00;99406.66;5046817;28;20037;-70
2023/08/02 07:26:43;;;;;;;13.85;9.13;;;;;;;16.01;100.00;99406.66;5049127;28;20037;-72
2023/08/02 07:29:09;;;;;;;11.15;7.22;;;;;;;16.10;100.00;99399.44;5047975;28;20033;-71
2023/08/02 07:31:35;;;;;;;14.85;6.72;;;;;;;16.15;100.00;99379.09;5041096;28;20917;-71
2023/08/02 07:34:01;;;;;;;14.18;7.43;;;;;;;16.08;100.00;99367.34;5046598;28;20256;-71
2023/08/02 07:36:27;;;;;;;14.00;7.63;;;;;;;16.18;100.00;99364.47;5047029;28;20113;-71
2023/08/02 07:38:52;;;;;;;12.38;6.78;;;;;;;16.21;100.00;99361.44;5039612;28;20052;-71
2023/08/02 07:41:18;;;;;;;11.38;7.47;;;;;;;16.27;100.00;99350.00;5038732;28;20107;-70
2023/08/02 07:43:44;;;;;;;10.93;7.07;;;;;;;16.16;100.00;99335.03;5054838;28;20072;-71
2023/08/02 07:46:20;;;;;;;9.88;6.68;;;;;;;16.22;100.00;99338.94;5078783;28;20426;-70
2023/08/02 07:48:45;;;;;;;11.57;7.68;;;;;;;16.21;100.00;99329.16;5043959;28;20041;-71
2023/08/02 07:51:18;;;;;;;11.80;6.13;;;;;;;16.36;100.00;99323.91;5045814;28;20077;-71
2023/08/02 07:53:49;;;;;;;13.70;6.93;;;;;;;16.48;100.00;99309.09;5077663;27;20420;-71
2023/08/02 07:56:15;;;;;;;9.18;7.03;;;;;;;16.28;100.00;99316.72;5045124;28;20079;-71
2023/08/02 07:58:44;;;;;;;8.90;6.30;;;;;;;16.31;100.00;99305.59;5043206;28;20142;-70
2023/08/02 08:01:17;;;;;;;11.52;6.07;;;;;;;16.44;100.00;99307.75;5059532;28;20107;-71
2023/08/02 08:03:45;;;;;;;;;;;;;;;16.50;100.00;99304.38;5039011;28;20115;-70
2023/08/02 08:06:20;;;;;;;7.35;5.50;;;;;;;16.78;100.00;99294.03;5042144;28;19916;-72
2023/08/02 08:08:48;;;;;;;7.15;5.60;;;;;;;16.51;100.00;99289.91;5045439;28;20048;-71
2023/08/02 08:11:22;;;;;;;8.80;5.32;;;;;;;16.63;100.00;99293.91;5044332;28;20040;-71
2023/08/02 08:13:48;;;;;;;13.38;5.90;;;;;;;16.58;100.00;99278.28;5042274;28;20033;-71
2023/08/02 08:16:16;;;;;;;8.32;6.00;;;;;;;16.68;100.00;99271.84;5043628;28;20114;-71
2023/08/02 08:18:44;;;;;;;9.18;5.65;;;;;;;16.54;100.00;99276.09;5045081;28;20036;-71
2023/08/02 08:21:17;;;;;;;12.68;6.63;;;;;;;16.64;100.00;99265.97;5038253;28;20029;-72
2023/08/02 08:23:47;;;;;;;8.27;6.68;;;;;;;16.75;100.00;99259.38;5040585;28;20033;-71
2023/08/02 08:26:16;;;;;;;10.50;5.97;;;;;;;16.89;100.00;99247.03;5038993;28;20139;-71
2023/08/02 08:28:45;;;;;;;8.77;5.60;;;;;;;16.98;100.00;99252.19;5038995;28;20029;-71
2023/08/02 08:31:17;;;;;;;6.88;5.13;;;;;;;17.10;100.00;99241.84;5044875;28;20122;-72
2023/08/02 08:33:45;;;;;;;;;;;;;;;16.93;100.00;99229.53;5045498;28;20044;-72
2023/08/02 08:36:16;;;;;;;9.00;5.53;;;;;;;17.13;100.00;99232.59;5039711;28;19956;-72
2023/08/02 08:38:44;;;;;;;6.82;4.57;;;;;;;17.31;100.00;99223.16;5044674;28;20032;-72
2023/08/02 08:41:20;;;;;;;5.53;3.80;;;;;;;17.20;100.00;99204.75;5045578;28;20146;-71
2023/08/02 08:43:46;;;;;;;5.45;4.40;;;;;;;17.07;100.00;99194.59;5041092;28;20268;-71
2023/08/02 08:46:19;;;;;;;5.75;3.92;;;;;;;17.35;100.00;99191.31;5057349;28;20061;-72
2023/08/02 08:48:44;;;;;;;4.68;4.00;;;;;;;17.69;100.00;99171.97;5040410;28;20067;-71
2023/08/02 08:51:16;;;;;;;6.00;4.53;;;;;;;17.73;100.00;99164.41;5046855;28;20098;-71
2023/08/02 08:53:44;;;;;;;4.32;3.60;;;;;;;17.79;100.00;99158.25;5038872;28;20036;-72
2023/08/02 08:56:21;;;;;;;8.10;4.68;;;;;;;17.40;100.00;99150.34;5078884;28;20049;-72
2023/08/02 08:58:47;;;;;;;5.47;3.72;;;;;;;17.30;100.00;99156.00;5046163;28;20033;-72
2023/08/02 09:01:16;;;;;;;8.27;3.95;;;;;;;17.30;100.00;99150.63;5047637;28;20037;-72
2023/08/02 09:03:46;;;;;;;7.35;4.68;;;;;;;17.53;100.00;99158.66;5039139;28;20029;-71
2023/08/02 09:06:17;;;;;;;4.10;3.40;;;;;;;17.45;100.00;99156.03;5040428;28;20036;-72
2023/08/02 09:08:47;;;;;;;4.75;4.35;;;;;;;17.47;100.00;99144.06;5046604;28;20021;-71
2023/08/02 09:11:16;;;;;;;4.90;4.05;;;;;;;17.63;100.00;99142.22;5041357;28;20569;-71
2023/08/02 09:13:45;;;;;;;5.60;3.78;;;;;;;17.69;100.00;99134.22;5047811;28;20039;-72
2023/08/02 09:16:18;;;;;;;7.53;4.20;;;;;;;17.74;100.00;99139.94;5047271;28;20067;-72
2023/08/02 09:18:47;;;;;;;4.60;4.03;;;;;;;17.56;100.00;99134.03;5046190;28;20068;-72
2023/08/02 09:21:21;;;;;;;4.72;4.07;;;;;;;17.74;100.00;99148.03;5065399;28;20033;-71
2023/08/02 09:23:57;;;;;;;4.20;3.42;;;;;;;17.93;100.00;99137.72;5061835;28;20072;-71
2023/08/02 09:26:23;;;;;;;6.15;3.83;;;;;;;18.11;100.00;99132.75;5050965;28;20079;-71
2023/08/02 09:29:05;;;;;;;4.13;3.38;;;;;;;18.29;100.00;99127.81;5048473;28;20039;-72
2023/08/02 09:31:36;;;;;;;3.38;3.08;;;;;;;18.11;100.00;99109.31;5044999;28;20053;-72
2023/08/02 09:34:02;;;;;;;3.63;3.22;;;;;;;18.07;100.00;99120.66;5049580;28;20029;-72
2023/08/02 09:36:33;;;;;;;4.25;3.85;;;;;;;18.17;100.00;99126.59;5047032;28;20068;-71
2023/08/02 09:39:21;;;;;;;;;;;;;;;;;;;;;
2023/08/02 09:42:07;;;;;;;3.20;2.60;;;;;;;18.66;100.00;99108.91;5048858;28;20039;-72
2023/08/02 09:44:33;;;;;;;3.17;2.88;;;;;;;19.01;100.00;99101.78;5048178;28;20044;-72
2023/08/02 09:47:15;;;;;;;3.60;2.80;;;;;;;19.06;100.00;99089.38;5056665;28;20082;-72
2023/08/02 09:50:00;;;;;;;;;;;;;;;19.21;100.00;99078.47;5037960;28;20041;-71
2023/08/02 09:52:26;;;;;;;4.20;2.75;;;;;;;19.19;100.00;99091.34;5047077;28;19928;-72
2023/08/02 09:54:53;;;;;;;3.25;2.70;;;;;;;19.69;100.00;99084.03;5046517;28;20126;-72
2023/08/02 09:57:24;;;;;;;3.70;3.40;;;;;;;19.90;100.00;99073.13;5043689;28;20036;-71
2023/08/02 09:59:53;;;;;;;3.17;2.92;;;;;;;20.37;100.00;99063.28;5041843;28;20127;-71
2023/08/02 10:02:26;;;;;;;3.38;3.08;;;;;;;20.49;100.00;99052.75;5043514;28;20037;-71
2023/08/02 10:04:58;;;;;;;3.60;3.00;;;;;;;20.18;100.00;99043.25;5044812;28;20059;-72
2023/08/02 10:07:31;;;;;;;3.35;3.15;;;;;;;20.29;100.00;99028.28;5047481;28;20104;-72
2023/08/02 10:10:04;;;;;;;5.80;3.33;;;;;;;20.59;100.00;99015.25;5043708;28;20047;-72
2023/08/02 10:12:38;;;;;;;3.20;3.00;;;;;;;21.36;100.00;99010.25;5042397;28;20931;-72
2023/08/02 10:15:04;;;;;;;3.67;3.25;;;;;;;21.59;100.00;99005.19;5045631;28;20297;-72
2023/08/02 10:17:36;;;;;;;3.42;3.13;;;;;;;21.91;100.00;98992.53;5040235;28;20041;-72
2023/08/02 10:20:03;;;;;;;3.75;3.38;;;;;;;22.22;100.00;98990.91;5041477;28;20037;-71
2023/08/02 10:22:33;;;;;;;3.88;2.97;;;;;;;22.40;100.00;98988.31;5039792;28;20042;-72
2023/08/02 10:25:02;;;;;;;4.80;4.40;;;;;;;22.53;100.00;98994.69;5046988;28;20122;-71
2023/08/02 10:27:29;;;;;;;3.25;2.97;;;;;;;22.53;100.00;98984.66;5043825;28;20029;-72
2023/08/02 10:29:56;;;;;;;4.38;3.05;;;;;;;22.01;100.00;98986.63;5044333;28;20040;-72
2023/08/02 10:32:22;;;;;;;5.07;3.42;;;;;;;22.17;100.00;98978.00;5047103;28;20049;-72
2023/08/02 10:34:52;;;;;;;2.97;2.78;;;;;;;22.51;100.00;98973.19;5047517;28;20041;-71
2023/08/02 10:37:21;;;;;;;3.08;2.88;;;;;;;22.37;100.00;98985.19;5049889;28;20039;-72
2023/08/02 10:39:53;;;;;;;3.75;3.22;;;;;;;21.69;100.00;98985.75;5062056;28;20055;-72
2023/08/02 10:42:19;;;;;;;4.53;3.35;;;;;;;21.17;100.00;98987.50;5046738;28;20689;-71
2023/08/02 10:44:56;;;;;;;3.95;3.65;;;;;;;22.05;100.00;98987.88;5045043;28;20033;-71
2023/08/02 10:47:26;;;;;;;4.40;3.63;;;;;;;22.45;100.00;98977.63;5044849;28;20120;-72
2023/08/02 10:49:52;;;;;;;3.42;3.22;;;;;;;22.36;100.00;98943.63;5045989;28;20609;-71
2023/08/02 10:52:29;;;;;;;3.80;3.50;;;;;;;22.25;100.00;98952.47;5027988;28;20593;-71
2023/08/02 10:55:13;;;;;;;3.90;3.60;;;;;;;22.86;100.00;98940.06;5045632;28;20053;-71
2023/08/02 10:58:06;;;;;;;4.15;3.85;;;;;;;23.33;100.00;98927.69;5056463;28;20501;-72
2023/08/02 11:00:34;;;;;;;6.57;5.80;;;;;;;22.85;100.00;98924.84;5041058;28;20849;-71
2023/08/02 11:03:03;;;;;;;5.43;4.95;;;;;;;22.91;100.00;98907.66;5041413;28;20472;-71
2023/08/02 11:05:46;;;;;;;5.22;3.50;;;;;;;22.47;100.00;98920.34;5041033;28;20033;-71
2023/08/02 11:08:16;;;;;;;3.58;3.28;;;;;;;22.81;100.00;98932.59;5040128;28;20130;-71
2023/08/02 11:10:54;;;;;;;3.47;3.22;;;;;;;23.18;100.00;98922.63;5044622;28;20034;-72
2023/08/02 11:13:21;;;;;;;5.05;3.63;;;;;;;23.82;100.00;98925.84;5036142;28;20055;-71
2023/08/02 11:15:58;;;;;;;6.40;3.70;;;;;;;23.74;100.00;98918.00;5041776;28;20049;-72
2023/08/02 11:18:32;;;;;;;3.88;3.47;;;;;;;23.97;100.00;98917.28;5044571;28;20029;-71
2023/08/02 11:21:11;;;;;;;5.07;3.22;;;;;;;23.69;100.00;98931.47;5043484;28;20033;-71
2023/08/02 11:23:49;;;;;;;4.03;3.72;;;;;;;23.32;100.00;98917.88;5046884;28;20076;-71
2023/08/02 11:26:21;;;;;;;3.90;3.60;;;;;;;22.36;100.00;98915.63;5041885;28;20172;-70
2023/08/02 11:28:48;;;;;;;7.53;4.57;;;;;;;22.47;100.00;98899.44;5049363;28;20037;-71